Aérodrome :
LOGIN :

S'inscrire | Disclaimer

   EN    FR    IT 

 










Légende :    VFR   VFR Marginal   IFR   IFR Intensif   IFR Très Intensif
Visi : 
Plafond : 
>= 8 km
>= 3000ft
5 à 8 km
1000 à 3000 ft
1500m à 5 km
500 à 1000 ft
800 à 1500m
200 à 500 ft
< 800m
< 200 ft
Symboles :   Orages  Brouillard  Fortes neiges  Fortes précipitations  Vent > 20 kt
SIGMETs :   Divers  Orages  Givrage  Turbulence  Onde Orograph.  Cendres Volcan.







- Altitude de l'aérodrome : 392 ft
- Code IATA : CDG
- Voir les cartes d'approche


LFPG - Paris-Aeroport Charles De Gaulle

DERNIER METAR :
  • 092300Z 30006KT 9999 FEW020 SCT026 07/05 Q1023 NOSIG

METARs EXPIRÉS :
  • 092230Z 29007KT 9999 SCT020 SCT026 07/05 Q1022 NOSIG
  • 092200Z 30008KT 9999 SCT030 SCT053 07/05 Q1022 NOSIG
  • 092130Z 29012KT 9999 FEW030 SCT050 08/05 Q1021 NOSIG
  • 092100Z 27012KT CAVOK 08/06 Q1021 NOSIG
  • 092030Z 27009KT CAVOK 08/05 Q1021 NOSIG

TAF TAF LFPG
Valide du 09 à 18h jusqu'au 11 à 00h UTC


091700Z 0918/1024 30015G25KT 9999 BKN030 TX10/1013Z TN06/1005Z
PROB30
TEMPO 0918/0921 -SHRA SCT025TCU
BECMG 0919/0921 28012KT
PROB30
TEMPO 1001/1010 BKN005
BECMG 1019/1021 29005KT CAVOK
ATIS : +33 1 48 62 10 92
Pas de NOTAMs connus pour ce terrain.



MET'MAP, la Météo Aéronautique d'un coup d'oeil ! - Copyright ORBIFLY Décembre 2007 - Disclaimer

ORBIFLY MET'MAP TEAM :

Programmation & Développement : Alexandra Zaïnal
Conception & Développement : Baudouin d'Aumeries
Co-Programmation & Développement : Marc-Olivier Méhu
Soutien technique & logistique : Manuel Goepfert

Contact : metmap@orbifly.com




SOURCES & CREDITS :

   NOAA